sensor_id;sensor_type;location;lat;lon;timestamp;temperature;humidity
33741;DHT22;20065;48.380;10.892;2024-01-27T00:00:11;6.30;99.90
33741;DHT22;20065;48.380;10.892;2024-01-27T00:02:59;6.20;99.90
33741;DHT22;20065;48.380;10.892;2024-01-27T00:05:45;6.10;99.90
33741;DHT22;20065;48.380;10.892;2024-01-27T00:08:32;6.00;99.90
33741;DHT22;20065;48.380;10.892;2024-01-27T00:11:18;6.00;99.90
33741;DHT22;20065;48.380;10.892;2024-01-27T00:14:04;5.90;99.90
33741;DHT22;20065;48.380;10.892;2024-01-27T00:16:50;5.90;99.90
33741;DHT22;20065;48.380;10.892;2024-01-27T00:19:39;6.00;99.90
33741;DHT22;20065;48.380;10.892;2024-01-27T00:22:25;6.10;99.90
33741;DHT22;20065;48.380;10.892;2024-01-27T00:25:11;6.20;99.90
33741;DHT22;20065;48.380;10.892;2024-01-27T00:27:57;6.20;99.90
33741;DHT22;20065;48.380;10.892;2024-01-27T00:30:43;6.00;99.90
33741;DHT22;20065;48.380;10.892;2024-01-27T00:33:30;5.90;99.90
33741;DHT22;20065;48.380;10.892;2024-01-27T00:36:16;5.90;99.90
33741;DHT22;20065;48.380;10.892;2024-01-27T00:39:03;6.10;99.90
33741;DHT22;20065;48.380;10.892;2024-01-27T00:41:49;6.20;99.90
33741;DHT22;20065;48.380;10.892;2024-01-27T00:44:37;6.30;99.90
33741;DHT22;20065;48.380;10.892;2024-01-27T00:47:23;6.20;99.90
33741;DHT22;20065;48.380;10.892;2024-01-27T00:50:09;6.10;99.90
33741;DHT22;20065;48.380;10.892;2024-01-27T00:52:55;6.00;99.90
33741;DHT22;20065;48.380;10.892;2024-01-27T00:55:42;5.90;99.90
33741;DHT22;20065;48.380;10.892;2024-01-27T00:58:28;5.90;99.90
33741;DHT22;20065;48.380;10.892;2024-01-27T01:01:14;5.90;99.90
33741;DHT22;20065;48.380;10.892;2024-01-27T01:04:00;6.00;99.90
33741;DHT22;20065;48.380;10.892;2024-01-27T01:06:47;6.00;99.90
33741;DHT22;20065;48.380;10.892;2024-01-27T01:09:33;6.00;99.90
33741;DHT22;20065;48.380;10.892;2024-01-27T01:12:19;6.00;99.90
33741;DHT22;20065;48.380;10.892;2024-01-27T01:15:07;5.90;99.90
33741;DHT22;20065;48.380;10.892;2024-01-27T01:17:53;5.90;99.90
33741;DHT22;20065;48.380;10.892;2024-01-27T01:20:39;5.80;99.90
33741;DHT22;20065;48.380;10.892;2024-01-27T01:23:25;5.70;99.90
33741;DHT22;20065;48.380;10.892;2024-01-27T01:26:11;5.70;99.90
33741;DHT22;20065;48.380;10.892;2024-01-27T01:28:57;5.70;99.90
33741;DHT22;20065;48.380;10.892;2024-01-27T01:31:44;5.70;99.90
33741;DHT22;20065;48.380;10.892;2024-01-27T01:34:30;5.70;99.90
33741;DHT22;20065;48.380;10.892;2024-01-27T01:37:16;5.70;99.90
33741;DHT22;20065;48.380;10.892;2024-01-27T01:40:02;5.60;99.90
33741;DHT22;20065;48.380;10.892;2024-01-27T01:42:51;5.60;99.90
33741;DHT22;20065;48.380;10.892;2024-01-27T01:45:38;5.60;99.90
33741;DHT22;20065;48.380;10.892;2024-01-27T01:48:24;5.60;99.90
33741;DHT22;20065;48.380;10.892;2024-01-27T01:51:10;5.70;99.90
33741;DHT22;20065;48.380;10.892;2024-01-27T01:53:58;5.70;99.90
33741;DHT22;20065;48.380;10.892;2024-01-27T01:56:45;5.70;99.90
33741;DHT22;20065;48.380;10.892;2024-01-27T01:59:31;5.70;99.90
33741;DHT22;20065;48.380;10.892;2024-01-27T02:02:18;5.70;99.90
33741;DHT22;20065;48.380;10.892;2024-01-27T02:05:04;5.70;99.90
33741;DHT22;20065;48.380;10.892;2024-01-27T02:07:51;5.80;99.90
33741;DHT22;20065;48.380;10.892;2024-01-27T02:10:37;5.90;99.90
33741;DHT22;20065;48.380;10.892;2024-01-27T02:13:23;5.80;99.90
33741;DHT22;20065;48.380;10.892;2024-01-27T02:16:12;5.80;99.90
33741;DHT22;20065;48.380;10.892;2024-01-27T02:19:20;5.80;99.90
33741;DHT22;20065;48.380;10.892;2024-01-27T02:22:06;5.70;99.90
33741;DHT22;20065;48.380;10.892;2024-01-27T02:24:56;5.70;99.90
33741;DHT22;20065;48.380;10.892;2024-01-27T02:27:46;5.60;99.90
33741;DHT22;20065;48.380;10.892;2024-01-27T02:30:32;5.60;99.90
33741;DHT22;20065;48.380;10.892;2024-01-27T02:33:18;5.50;99.90
33741;DHT22;20065;48.380;10.892;2024-01-27T02:36:05;5.40;99.90
33741;DHT22;20065;48.380;10.892;2024-01-27T02:38:51;5.20;99.90
33741;DHT22;20065;48.380;10.892;2024-01-27T02:41:38;5.10;99.90
33741;DHT22;20065;48.380;10.892;2024-01-27T02:44:25;5.10;99.90
33741;DHT22;20065;48.380;10.892;2024-01-27T02:47:11;5.00;99.90
33741;DHT22;20065;48.380;10.892;2024-01-27T02:49:57;5.00;99.90
33741;DHT22;20065;48.380;10.892;2024-01-27T02:52:43;5.00;99.90
33741;DHT22;20065;48.380;10.892;2024-01-27T02:55:29;5.10;99.90
33741;DHT22;20065;48.380;10.892;2024-01-27T02:58:15;5.10;99.90
33741;DHT22;20065;48.380;10.892;2024-01-27T03:01:02;5.10;99.90
33741;DHT22;20065;48.380;10.892;2024-01-27T03:03:48;5.10;99.90
33741;DHT22;20065;48.380;10.892;2024-01-27T03:06:34;5.00;99.90
33741;DHT22;20065;48.380;10.892;2024-01-27T03:09:20;4.90;99.90
33741;DHT22;20065;48.380;10.892;2024-01-27T03:12:06;4.80;99.90
33741;DHT22;20065;48.380;10.892;2024-01-27T03:14:53;4.70;99.90
33741;DHT22;20065;48.380;10.892;2024-01-27T03:17:40;4.60;99.90
33741;DHT22;20065;48.380;10.892;2024-01-27T03:20:27;4.60;99.90
33741;DHT22;20065;48.380;10.892;2024-01-27T03:23:13;4.70;99.90
33741;DHT22;20065;48.380;10.892;2024-01-27T03:25:59;4.70;99.90
33741;DHT22;20065;48.380;10.892;2024-01-27T03:28:48;4.70;99.90
33741;DHT22;20065;48.380;10.892;2024-01-27T03:31:34;4.70;99.90
33741;DHT22;20065;48.380;10.892;2024-01-27T03:34:20;4.70;99.90
33741;DHT22;20065;48.380;10.892;2024-01-27T03:37:10;4.70;99.90
33741;DHT22;20065;48.380;10.892;2024-01-27T03:39:57;4.70;99.90
33741;DHT22;20065;48.380;10.892;2024-01-27T03:42:43;4.80;99.90
33741;DHT22;20065;48.380;10.892;2024-01-27T03:45:29;4.80;99.90
33741;DHT22;20065;48.380;10.892;2024-01-27T03:48:15;4.80;99.90
33741;DHT22;20065;48.380;10.892;2024-01-27T03:51:02;4.80;99.90
33741;DHT22;20065;48.380;10.892;2024-01-27T03:53:48;4.90;99.90
33741;DHT22;20065;48.380;10.892;2024-01-27T03:56:35;4.90;99.90
33741;DHT22;20065;48.380;10.892;2024-01-27T03:59:21;4.80;99.90
33741;DHT22;20065;48.380;10.892;2024-01-27T04:02:07;4.90;99.90
33741;DHT22;20065;48.380;10.892;2024-01-27T04:04:53;4.80;99.90
33741;DHT22;20065;48.380;10.892;2024-01-27T04:07:40;4.70;99.90
33741;DHT22;20065;48.380;10.892;2024-01-27T04:10:26;4.70;99.90
33741;DHT22;20065;48.380;10.892;2024-01-27T04:13:13;4.70;99.90
33741;DHT22;20065;48.380;10.892;2024-01-27T04:15:59;4.70;99.90
33741;DHT22;20065;48.380;10.892;2024-01-27T04:18:47;4.70;99.90
33741;DHT22;20065;48.380;10.892;2024-01-27T04:21:33;4.60;99.90
33741;DHT22;20065;48.380;10.892;2024-01-27T04:24:19;4.50;99.90
33741;DHT22;20065;48.380;10.892;2024-01-27T04:27:05;4.40;99.90
33741;DHT22;20065;48.380;10.892;2024-01-27T04:29:52;4.30;99.90
33741;DHT22;20065;48.380;10.892;2024-01-27T04:32:38;4.20;99.90
33741;DHT22;20065;48.380;10.892;2024-01-27T04:35:24;4.10;99.90
33741;DHT22;20065;48.380;10.892;2024-01-27T04:38:10;4.10;99.90
33741;DHT22;20065;48.380;10.892;2024-01-27T04:40:56;4.10;99.90
33741;DHT22;20065;48.380;10.892;2024-01-27T04:43:42;4.10;99.90
33741;DHT22;20065;48.380;10.892;2024-01-27T04:46:28;4.10;99.90
33741;DHT22;20065;48.380;10.892;2024-01-27T04:49:15;4.00;99.90
33741;DHT22;20065;48.380;10.892;2024-01-27T04:52:01;4.00;99.90
33741;DHT22;20065;48.380;10.892;2024-01-27T04:54:47;4.00;99.90
33741;DHT22;20065;48.380;10.892;2024-01-27T04:57:33;4.00;99.90
33741;DHT22;20065;48.380;10.892;2024-01-27T05:00:20;4.00;99.90
33741;DHT22;20065;48.380;10.892;2024-01-27T05:03:06;4.00;99.90
33741;DHT22;20065;48.380;10.892;2024-01-27T05:05:56;4.10;99.90
33741;DHT22;20065;48.380;10.892;2024-01-27T05:08:43;4.10;99.90
33741;DHT22;20065;48.380;10.892;2024-01-27T05:11:30;4.10;99.90
33741;DHT22;20065;48.380;10.892;2024-01-27T05:14:17;4.10;99.90
33741;DHT22;20065;48.380;10.892;2024-01-27T05:17:03;4.20;99.90
33741;DHT22;20065;48.380;10.892;2024-01-27T05:19:50;4.30;99.90
33741;DHT22;20065;48.380;10.892;2024-01-27T05:22:36;4.30;99.90
33741;DHT22;20065;48.380;10.892;2024-01-27T05:25:22;4.40;99.90
33741;DHT22;20065;48.380;10.892;2024-01-27T05:28:08;4.40;99.90
33741;DHT22;20065;48.380;10.892;2024-01-27T05:30:54;4.40;99.90
33741;DHT22;20065;48.380;10.892;2024-01-27T05:33:42;4.40;99.90
33741;DHT22;20065;48.380;10.892;2024-01-27T05:36:28;4.40;99.90
33741;DHT22;20065;48.380;10.892;2024-01-27T05:39:14;4.40;99.90
33741;DHT22;20065;48.380;10.892;2024-01-27T05:42:01;4.40;99.90
33741;DHT22;20065;48.380;10.892;2024-01-27T05:44:47;4.40;99.90
33741;DHT22;20065;48.380;10.892;2024-01-27T05:47:33;4.40;99.90
33741;DHT22;20065;48.380;10.892;2024-01-27T05:50:19;4.40;99.90
33741;DHT22;20065;48.380;10.892;2024-01-27T05:53:06;4.30;99.90
33741;DHT22;20065;48.380;10.892;2024-01-27T05:55:53;4.20;99.90
33741;DHT22;20065;48.380;10.892;2024-01-27T05:58:45;4.20;99.90
33741;DHT22;20065;48.380;10.892;2024-01-27T06:01:31;4.10;99.90
33741;DHT22;20065;48.380;10.892;2024-01-27T06:04:17;4.10;99.90
33741;DHT22;20065;48.380;10.892;2024-01-27T06:07:03;4.20;99.90
33741;DHT22;20065;48.380;10.892;2024-01-27T06:09:50;4.20;99.90
33741;DHT22;20065;48.380;10.892;2024-01-27T06:12:37;4.30;99.90
33741;DHT22;20065;48.380;10.892;2024-01-27T06:15:24;4.30;99.90
33741;DHT22;20065;48.380;10.892;2024-01-27T06:18:10;4.40;99.90
33741;DHT22;20065;48.380;10.892;2024-01-27T06:20:56;4.40;99.90
33741;DHT22;20065;48.380;10.892;2024-01-27T06:23:42;4.40;99.90
33741;DHT22;20065;48.380;10.892;2024-01-27T06:26:28;4.40;99.90
33741;DHT22;20065;48.380;10.892;2024-01-27T06:29:14;4.40;99.90
33741;DHT22;20065;48.380;10.892;2024-01-27T06:32:00;4.30;99.90
33741;DHT22;20065;48.380;10.892;2024-01-27T06:34:47;4.20;99.90
33741;DHT22;20065;48.380;10.892;2024-01-27T06:37:33;4.20;99.90
33741;DHT22;20065;48.380;10.892;2024-01-27T06:40:19;4.30;99.90
33741;DHT22;20065;48.380;10.892;2024-01-27T06:43:05;4.30;99.90
33741;DHT22;20065;48.380;10.892;2024-01-27T06:45:52;4.30;99.90
33741;DHT22;20065;48.380;10.892;2024-01-27T06:48:38;4.30;99.90
33741;DHT22;20065;48.380;10.892;2024-01-27T06:51:24;4.20;99.90
33741;DHT22;20065;48.380;10.892;2024-01-27T06:54:10;4.10;99.90
33741;DHT22;20065;48.380;10.892;2024-01-27T06:56:56;3.90;99.90
33741;DHT22;20065;48.380;10.892;2024-01-27T06:59:42;4.00;99.90
33741;DHT22;20065;48.380;10.892;2024-01-27T07:02:28;4.10;99.90
33741;DHT22;20065;48.380;10.892;2024-01-27T07:05:14;4.30;99.90
33741;DHT22;20065;48.380;10.892;2024-01-27T07:08:01;4.40;99.90
33741;DHT22;20065;48.380;10.892;2024-01-27T07:10:48;4.40;99.90
33741;DHT22;20065;48.380;10.892;2024-01-27T07:13:45;4.40;99.90
33741;DHT22;20065;48.380;10.892;2024-01-27T07:16:32;4.20;99.90
33741;DHT22;20065;48.380;10.892;2024-01-27T07:19:19;4.20;99.90
33741;DHT22;20065;48.380;10.892;2024-01-27T07:22:05;4.20;99.90
33741;DHT22;20065;48.380;10.892;2024-01-27T07:24:52;4.30;99.90
33741;DHT22;20065;48.380;10.892;2024-01-27T07:27:38;4.30;99.90
33741;DHT22;20065;48.380;10.892;2024-01-27T07:30:24;4.30;99.90
33741;DHT22;20065;48.380;10.892;2024-01-27T07:33:10;4.40;99.90
33741;DHT22;20065;48.380;10.892;2024-01-27T07:35:57;4.40;99.90
33741;DHT22;20065;48.380;10.892;2024-01-27T07:38:43;4.40;99.90
33741;DHT22;20065;48.380;10.892;2024-01-27T07:41:29;4.30;99.90
33741;DHT22;20065;48.380;10.892;2024-01-27T07:44:15;4.20;99.90
33741;DHT22;20065;48.380;10.892;2024-01-27T07:47:01;4.20;99.90
33741;DHT22;20065;48.380;10.892;2024-01-27T07:49:48;4.20;99.90
33741;DHT22;20065;48.380;10.892;2024-01-27T07:52:35;4.20;99.90
33741;DHT22;20065;48.380;10.892;2024-01-27T07:55:21;4.20;99.90
33741;DHT22;20065;48.380;10.892;2024-01-27T07:58:08;4.20;99.90
33741;DHT22;20065;48.380;10.892;2024-01-27T08:00:54;4.20;99.90
33741;DHT22;20065;48.380;10.892;2024-01-27T08:03:40;4.10;99.90
33741;DHT22;20065;48.380;10.892;2024-01-27T08:06:29;4.10;99.90
33741;DHT22;20065;48.380;10.892;2024-01-27T08:09:16;4.20;99.90
33741;DHT22;20065;48.380;10.892;2024-01-27T08:12:03;4.20;99.90
33741;DHT22;20065;48.380;10.892;2024-01-27T08:14:49;4.20;99.90
33741;DHT22;20065;48.380;10.892;2024-01-27T08:17:35;4.30;99.90
33741;DHT22;20065;48.380;10.892;2024-01-27T08:20:21;4.40;99.90
33741;DHT22;20065;48.380;10.892;2024-01-27T08:23:08;4.40;99.90
33741;DHT22;20065;48.380;10.892;2024-01-27T08:25:55;4.40;99.90
33741;DHT22;20065;48.380;10.892;2024-01-27T08:28:41;4.50;99.90
33741;DHT22;20065;48.380;10.892;2024-01-27T08:31:28;4.50;99.90
33741;DHT22;20065;48.380;10.892;2024-01-27T08:34:14;4.50;99.90
33741;DHT22;20065;48.380;10.892;2024-01-27T08:37:01;4.50;99.90
33741;DHT22;20065;48.380;10.892;2024-01-27T08:39:48;4.60;99.90
33741;DHT22;20065;48.380;10.892;2024-01-27T08:42:34;4.70;99.90
33741;DHT22;20065;48.380;10.892;2024-01-27T08:45:20;4.80;99.90
33741;DHT22;20065;48.380;10.892;2024-01-27T08:48:07;5.00;99.90
33741;DHT22;20065;48.380;10.892;2024-01-27T08:50:53;5.40;99.90
33741;DHT22;20065;48.380;10.892;2024-01-27T08:53:40;6.20;99.90
33741;DHT22;20065;48.380;10.892;2024-01-27T08:56:26;7.10;99.90
33741;DHT22;20065;48.380;10.892;2024-01-27T08:59:12;7.60;99.90
33741;DHT22;20065;48.380;10.892;2024-01-27T09:01:58;9.30;99.90
33741;DHT22;20065;48.380;10.892;2024-01-27T09:04:44;10.50;99.90
33741;DHT22;20065;48.380;10.892;2024-01-27T09:07:30;10.00;99.90
33741;DHT22;20065;48.380;10.892;2024-01-27T09:10:16;9.20;99.90
33741;DHT22;20065;48.380;10.892;2024-01-27T09:13:03;9.90;99.90
33741;DHT22;20065;48.380;10.892;2024-01-27T09:15:50;10.90;99.90
33741;DHT22;20065;48.380;10.892;2024-01-27T09:18:36;11.10;99.90
33741;DHT22;20065;48.380;10.892;2024-01-27T09:21:22;12.30;99.90
33741;DHT22;20065;48.380;10.892;2024-01-27T09:24:13;13.40;99.90
33741;DHT22;20065;48.380;10.892;2024-01-27T09:27:00;15.00;99.90
33741;DHT22;20065;48.380;10.892;2024-01-27T09:29:46;15.90;98.80
33741;DHT22;20065;48.380;10.892;2024-01-27T09:32:32;16.70;96.90
33741;DHT22;20065;48.380;10.892;2024-01-27T09:35:18;17.20;95.20
33741;DHT22;20065;48.380;10.892;2024-01-27T09:38:05;16.90;94.50
33741;DHT22;20065;48.380;10.892;2024-01-27T09:40:53;16.90;94.50
33741;DHT22;20065;48.380;10.892;2024-01-27T09:43:44;17.40;94.60
33741;DHT22;20065;48.380;10.892;2024-01-27T09:46:31;17.80;93.80
33741;DHT22;20065;48.380;10.892;2024-01-27T09:49:18;18.60;92.50
33741;DHT22;20065;48.380;10.892;2024-01-27T09:52:04;18.40;92.60
33741;DHT22;20065;48.380;10.892;2024-01-27T09:54:55;17.10;91.60
33741;DHT22;20065;48.380;10.892;2024-01-27T09:57:45;15.60;93.50
33741;DHT22;20065;48.380;10.892;2024-01-27T10:00:34;13.90;95.60
33741;DHT22;20065;48.380;10.892;2024-01-27T10:03:22;12.20;97.10
33741;DHT22;20065;48.380;10.892;2024-01-27T10:06:10;10.90;99.20
33741;DHT22;20065;48.380;10.892;2024-01-27T10:08:56;10.00;99.90
33741;DHT22;20065;48.380;10.892;2024-01-27T10:11:46;9.60;99.90
33741;DHT22;20065;48.380;10.892;2024-01-27T10:14:40;9.30;99.90
33741;DHT22;20065;48.380;10.892;2024-01-27T10:17:27;9.10;99.90
33741;DHT22;20065;48.380;10.892;2024-01-27T10:20:20;9.30;99.90
33741;DHT22;20065;48.380;10.892;2024-01-27T10:23:13;10.40;99.90
33741;DHT22;20065;48.380;10.892;2024-01-27T10:25:59;12.50;99.90
33741;DHT22;20065;48.380;10.892;2024-01-27T10:28:56;14.00;97.90
33741;DHT22;20065;48.380;10.892;2024-01-27T10:31:42;15.00;96.00
33741;DHT22;20065;48.380;10.892;2024-01-27T10:34:28;15.40;94.20
33741;DHT22;20065;48.380;10.892;2024-01-27T10:37:14;15.60;94.30
33741;DHT22;20065;48.380;10.892;2024-01-27T10:40:04;15.10;94.40
33741;DHT22;20065;48.380;10.892;2024-01-27T10:43:06;14.70;94.40
33741;DHT22;20065;48.380;10.892;2024-01-27T10:45:53;13.60;95.30
33741;DHT22;20065;48.380;10.892;2024-01-27T10:48:41;12.30;96.80
33741;DHT22;20065;48.380;10.892;2024-01-27T10:51:31;11.90;98.10
33741;DHT22;20065;48.380;10.892;2024-01-27T10:54:24;11.90;98.30
33741;DHT22;20065;48.380;10.892;2024-01-27T10:57:14;12.40;98.30
33741;DHT22;20065;48.380;10.892;2024-01-27T11:00:02;13.20;97.10
33741;DHT22;20065;48.380;10.892;2024-01-27T11:02:53;14.00;95.80
33741;DHT22;20065;48.380;10.892;2024-01-27T11:05:42;15.90;94.90
33741;DHT22;20065;48.380;10.892;2024-01-27T11:08:29;16.30;92.40
33741;DHT22;20065;48.380;10.892;2024-01-27T11:11:16;15.20;91.90
33741;DHT22;20065;48.380;10.892;2024-01-27T11:14:03;15.10;94.10
33741;DHT22;20065;48.380;10.892;2024-01-27T11:17:07;16.70;92.70
33741;DHT22;20065;48.380;10.892;2024-01-27T11:19:56;17.90;89.10
33741;DHT22;20065;48.380;10.892;2024-01-27T11:22:45;18.20;90.10
33741;DHT22;20065;48.380;10.892;2024-01-27T11:25:32;16.30;89.30
33741;DHT22;20065;48.380;10.892;2024-01-27T11:28:25;14.20;91.80
33741;DHT22;20065;48.380;10.892;2024-01-27T11:31:19;12.40;93.30
33741;DHT22;20065;48.380;10.892;2024-01-27T11:34:10;11.00;94.60
33741;DHT22;20065;48.380;10.892;2024-01-27T11:36:58;9.90;96.20
33741;DHT22;20065;48.380;10.892;2024-01-27T11:39:49;9.20;98.50
33741;DHT22;20065;48.380;10.892;2024-01-27T11:42:35;9.00;99.10
33741;DHT22;20065;48.380;10.892;2024-01-27T11:45:21;8.90;99.90
33741;DHT22;20065;48.380;10.892;2024-01-27T11:48:11;8.90;99.90
33741;DHT22;20065;48.380;10.892;2024-01-27T11:53:52;8.80;99.90
33741;DHT22;20065;48.380;10.892;2024-01-27T11:56:38;8.80;99.90
33741;DHT22;20065;48.380;10.892;2024-01-27T11:59:24;8.70;99.90
33741;DHT22;20065;48.380;10.892;2024-01-27T12:02:10;8.80;99.80
33741;DHT22;20065;48.380;10.892;2024-01-27T12:04:56;8.80;99.80
33741;DHT22;20065;48.380;10.892;2024-01-27T12:07:42;8.80;99.70
33741;DHT22;20065;48.380;10.892;2024-01-27T12:10:30;8.60;99.90
33741;DHT22;20065;48.380;10.892;2024-01-27T12:13:16;8.50;99.90
33741;DHT22;20065;48.380;10.892;2024-01-27T12:16:02;8.40;99.90
33741;DHT22;20065;48.380;10.892;2024-01-27T12:18:52;8.30;99.90
33741;DHT22;20065;48.380;10.892;2024-01-27T12:21:48;8.20;99.90
33741;DHT22;20065;48.380;10.892;2024-01-27T12:24:34;8.10;99.90
33741;DHT22;20065;48.380;10.892;2024-01-27T12:27:24;8.00;99.90
33741;DHT22;20065;48.380;10.892;2024-01-27T12:30:10;8.00;99.90
33741;DHT22;20065;48.380;10.892;2024-01-27T12:32:57;8.00;99.90
33741;DHT22;20065;48.380;10.892;2024-01-27T12:35:44;8.50;99.90
33741;DHT22;20065;48.380;10.892;2024-01-27T12:38:30;8.00;99.90
33741;DHT22;20065;48.380;10.892;2024-01-27T12:41:17;8.00;99.90
33741;DHT22;20065;48.380;10.892;2024-01-27T12:44:05;8.00;99.90
33741;DHT22;20065;48.380;10.892;2024-01-27T12:46:53;7.90;99.90
33741;DHT22;20065;48.380;10.892;2024-01-27T12:49:42;8.00;99.90
33741;DHT22;20065;48.380;10.892;2024-01-27T12:52:28;8.10;99.90
33741;DHT22;20065;48.380;10.892;2024-01-27T12:55:14;8.20;99.90
33741;DHT22;20065;48.380;10.892;2024-01-27T12:58:01;8.20;99.90
33741;DHT22;20065;48.380;10.892;2024-01-27T13:00:47;8.10;99.90
33741;DHT22;20065;48.380;10.892;2024-01-27T13:03:34;8.10;99.90
33741;DHT22;20065;48.380;10.892;2024-01-27T13:06:20;8.10;99.90
33741;DHT22;20065;48.380;10.892;2024-01-27T13:09:08;8.10;99.90
33741;DHT22;20065;48.380;10.892;2024-01-27T13:11:58;8.00;99.90
33741;DHT22;20065;48.380;10.892;2024-01-27T13:14:44;8.20;99.90
33741;DHT22;20065;48.380;10.892;2024-01-27T13:17:31;8.20;99.90
33741;DHT22;20065;48.380;10.892;2024-01-27T13:20:17;8.10;99.90
33741;DHT22;20065;48.380;10.892;2024-01-27T13:23:03;8.10;99.90
33741;DHT22;20065;48.380;10.892;2024-01-27T13:25:50;8.00;99.90
33741;DHT22;20065;48.380;10.892;2024-01-27T13:28:36;8.00;99.90
33741;DHT22;20065;48.380;10.892;2024-01-27T13:31:23;7.80;99.90
33741;DHT22;20065;48.380;10.892;2024-01-27T13:34:09;7.90;99.90
33741;DHT22;20065;48.380;10.892;2024-01-27T13:36:56;7.90;99.90
33741;DHT22;20065;48.380;10.892;2024-01-27T13:39:43;7.90;99.90
33741;DHT22;20065;48.380;10.892;2024-01-27T13:42:30;7.80;99.90
33741;DHT22;20065;48.380;10.892;2024-01-27T13:45:22;7.90;99.90
33741;DHT22;20065;48.380;10.892;2024-01-27T13:48:09;7.90;99.90
33741;DHT22;20065;48.380;10.892;2024-01-27T13:50:55;7.90;99.90
33741;DHT22;20065;48.380;10.892;2024-01-27T13:53:41;7.90;99.90
33741;DHT22;20065;48.380;10.892;2024-01-27T13:56:28;7.90;99.90
33741;DHT22;20065;48.380;10.892;2024-01-27T13:59:18;7.90;99.90
33741;DHT22;20065;48.380;10.892;2024-01-27T14:02:05;7.90;99.90
33741;DHT22;20065;48.380;10.892;2024-01-27T14:04:52;7.90;99.90
33741;DHT22;20065;48.380;10.892;2024-01-27T14:07:39;7.90;99.90
33741;DHT22;20065;48.380;10.892;2024-01-27T14:10:27;8.00;99.90
33741;DHT22;20065;48.380;10.892;2024-01-27T14:13:13;7.90;99.90
33741;DHT22;20065;48.380;10.892;2024-01-27T14:16:00;7.80;99.90
33741;DHT22;20065;48.380;10.892;2024-01-27T14:18:46;7.80;99.90
33741;DHT22;20065;48.380;10.892;2024-01-27T14:21:32;7.70;99.90
33741;DHT22;20065;48.380;10.892;2024-01-27T14:24:19;7.80;99.90
33741;DHT22;20065;48.380;10.892;2024-01-27T14:27:07;7.80;99.90
33741;DHT22;20065;48.380;10.892;2024-01-27T14:29:57;7.80;99.90
33741;DHT22;20065;48.380;10.892;2024-01-27T14:32:43;7.80;99.90
33741;DHT22;20065;48.380;10.892;2024-01-27T14:35:30;7.80;99.90
33741;DHT22;20065;48.380;10.892;2024-01-27T14:38:16;7.90;99.90
33741;DHT22;20065;48.380;10.892;2024-01-27T14:41:03;7.90;99.90
33741;DHT22;20065;48.380;10.892;2024-01-27T14:43:49;7.80;99.90
33741;DHT22;20065;48.380;10.892;2024-01-27T14:46:36;7.70;99.90
33741;DHT22;20065;48.380;10.892;2024-01-27T14:49:25;7.70;99.90
33741;DHT22;20065;48.380;10.892;2024-01-27T14:52:14;7.70;99.90
33741;DHT22;20065;48.380;10.892;2024-01-27T14:55:00;7.60;99.90
33741;DHT22;20065;48.380;10.892;2024-01-27T14:57:46;7.60;99.90
33741;DHT22;20065;48.380;10.892;2024-01-27T15:00:32;7.60;99.90
33741;DHT22;20065;48.380;10.892;2024-01-27T15:03:22;7.60;99.90
33741;DHT22;20065;48.380;10.892;2024-01-27T15:06:09;7.60;99.90
33741;DHT22;20065;48.380;10.892;2024-01-27T15:08:56;7.60;99.90
33741;DHT22;20065;48.380;10.892;2024-01-27T15:11:43;7.50;99.90
33741;DHT22;20065;48.380;10.892;2024-01-27T15:14:29;7.50;99.90
33741;DHT22;20065;48.380;10.892;2024-01-27T15:17:15;7.60;99.90
33741;DHT22;20065;48.380;10.892;2024-01-27T15:20:04;7.60;99.90
33741;DHT22;20065;48.380;10.892;2024-01-27T15:22:51;7.50;99.90
33741;DHT22;20065;48.380;10.892;2024-01-27T15:25:37;7.50;99.90
33741;DHT22;20065;48.380;10.892;2024-01-27T15:28:23;7.40;99.90
33741;DHT22;20065;48.380;10.892;2024-01-27T15:31:10;7.30;99.90
33741;DHT22;20065;48.380;10.892;2024-01-27T15:33:56;7.30;99.90
33741;DHT22;20065;48.380;10.892;2024-01-27T15:36:42;7.40;99.90
33741;DHT22;20065;48.380;10.892;2024-01-27T15:39:30;7.40;99.90
33741;DHT22;20065;48.380;10.892;2024-01-27T15:42:16;7.40;99.90
33741;DHT22;20065;48.380;10.892;2024-01-27T15:45:04;7.30;99.90
33741;DHT22;20065;48.380;10.892;2024-01-27T15:47:50;7.30;99.90
33741;DHT22;20065;48.380;10.892;2024-01-27T15:50:36;7.30;99.90
33741;DHT22;20065;48.380;10.892;2024-01-27T15:53:22;7.30;99.90
33741;DHT22;20065;48.380;10.892;2024-01-27T15:56:09;7.30;99.90
33741;DHT22;20065;48.380;10.892;2024-01-27T15:58:56;7.30;99.90
33741;DHT22;20065;48.380;10.892;2024-01-27T16:01:42;7.20;99.90
33741;DHT22;20065;48.380;10.892;2024-01-27T16:04:29;7.10;99.90
33741;DHT22;20065;48.380;10.892;2024-01-27T16:07:15;7.10;99.90
33741;DHT22;20065;48.380;10.892;2024-01-27T16:10:01;7.10;99.90
33741;DHT22;20065;48.380;10.892;2024-01-27T16:12:48;7.10;99.90
33741;DHT22;20065;48.380;10.892;2024-01-27T16:15:34;7.00;99.90
33741;DHT22;20065;48.380;10.892;2024-01-27T16:18:20;7.00;99.90
33741;DHT22;20065;48.380;10.892;2024-01-27T16:21:06;7.00;99.90
33741;DHT22;20065;48.380;10.892;2024-01-27T16:23:52;7.10;99.90
33741;DHT22;20065;48.380;10.892;2024-01-27T16:26:39;7.00;99.90
33741;DHT22;20065;48.380;10.892;2024-01-27T16:29:25;7.00;99.90
33741;DHT22;20065;48.380;10.892;2024-01-27T16:32:12;6.90;99.90
33741;DHT22;20065;48.380;10.892;2024-01-27T16:34:58;6.80;99.90
33741;DHT22;20065;48.380;10.892;2024-01-27T16:37:44;6.80;99.90
33741;DHT22;20065;48.380;10.892;2024-01-27T16:40:30;6.70;99.90
33741;DHT22;20065;48.380;10.892;2024-01-27T16:43:17;6.70;99.90
33741;DHT22;20065;48.380;10.892;2024-01-27T16:46:03;6.70;99.90
33741;DHT22;20065;48.380;10.892;2024-01-27T16:48:49;6.70;99.90
33741;DHT22;20065;48.380;10.892;2024-01-27T16:51:36;6.60;99.90
33741;DHT22;20065;48.380;10.892;2024-01-27T16:54:23;6.50;99.90
33741;DHT22;20065;48.380;10.892;2024-01-27T16:57:09;6.40;99.90
33741;DHT22;20065;48.380;10.892;2024-01-27T16:59:55;6.30;99.90
33741;DHT22;20065;48.380;10.892;2024-01-27T17:02:42;6.30;99.90
33741;DHT22;20065;48.380;10.892;2024-01-27T17:05:29;6.20;99.90
33741;DHT22;20065;48.380;10.892;2024-01-27T17:08:15;6.20;99.90
33741;DHT22;20065;48.380;10.892;2024-01-27T17:11:04;6.10;99.90
33741;DHT22;20065;48.380;10.892;2024-01-27T17:13:51;6.10;99.90
33741;DHT22;20065;48.380;10.892;2024-01-27T17:16:37;6.00;99.90
33741;DHT22;20065;48.380;10.892;2024-01-27T17:19:24;6.00;99.90
33741;DHT22;20065;48.380;10.892;2024-01-27T17:22:10;5.90;99.90
33741;DHT22;20065;48.380;10.892;2024-01-27T17:24:56;5.90;99.90
33741;DHT22;20065;48.380;10.892;2024-01-27T17:27:47;5.90;99.90
33741;DHT22;20065;48.380;10.892;2024-01-27T17:30:33;5.90;99.90
33741;DHT22;20065;48.380;10.892;2024-01-27T17:33:23;5.90;99.90
33741;DHT22;20065;48.380;10.892;2024-01-27T17:36:09;5.80;99.90